Time;durP1;ratioP1;P1;durP2;ratioP2;P2;SDS_P1;SDS_P2;PMS_P1;PMS_P2;Temp;Humidity;BMP_temperature;BMP_pressure;BME280_temperature;BME280_humidity;BME280_pressure;Samples;Min_cycle;Max_cycle;Signal;HPM_P1;HPM_P2
2024/02/18 00:02:19;;;;;;;16.67;6.83;;;;;;;3.92;100.00;103327.31;6076676;29;20233;-66
2024/02/18 00:05:40;;;;;;;10.73;7.17;;;;;;;3.84;100.00;103331.94;6062288;29;20603;-66
2024/02/18 00:09:01;;;;;;;14.73;7.10;;;;;;;3.75;100.00;103329.50;6090286;29;20241;-65
2024/02/18 00:12:23;;;;;;;12.47;7.70;;;;;;;3.85;100.00;103328.38;6082458;29;20232;-66
2024/02/18 00:15:44;;;;;;;10.47;6.27;;;;;;;3.97;100.00;103316.53;6082058;29;20233;-66
2024/02/18 00:19:07;;;;;;;9.40;6.07;;;;;;;4.07;100.00;103311.91;6089501;29;20248;-66
2024/02/18 00:22:28;;;;;;;10.63;5.67;;;;;;;4.07;100.00;103313.63;6079536;29;20273;-66
2024/02/18 00:25:49;;;;;;;14.20;8.73;;;;;;;4.15;100.00;103307.25;6083848;29;20229;-66
2024/02/18 00:29:10;;;;;;;9.63;6.00;;;;;;;4.16;100.00;103298.31;6090570;29;20228;-66
2024/02/18 00:32:31;;;;;;;7.70;6.33;;;;;;;4.26;100.00;103298.06;6078796;29;20323;-66
2024/02/18 00:35:53;;;;;;;10.03;6.83;;;;;;;4.28;100.00;103288.22;6081358;29;20232;-66
2024/02/18 00:39:14;;;;;;;14.90;6.87;;;;;;;4.38;100.00;103289.75;6089325;29;20232;-67
2024/02/18 00:42:35;;;;;;;7.57;6.17;;;;;;;4.48;100.00;103280.63;6087636;29;20232;-66
2024/02/18 00:45:56;;;;;;;10.23;6.63;;;;;;;4.49;100.00;103278.81;6078602;29;20229;-67
2024/02/18 00:49:18;;;;;;;8.87;5.63;;;;;;;4.23;100.00;103275.91;6087297;29;20513;-66
2024/02/18 00:52:40;;;;;;;9.17;6.30;;;;;;;3.96;100.00;103269.44;6081802;29;20248;-65
2024/02/18 00:56:00;;;;;;;6.70;5.03;;;;;;;4.31;100.00;103274.81;6082797;29;20252;-66
2024/02/18 00:59:22;;;;;;;10.87;5.60;;;;;;;4.33;100.00;103277.44;6090349;29;20240;-66
2024/02/18 01:02:43;;;;;;;10.23;6.47;;;;;;;4.02;100.00;103267.50;6078090;29;20232;-67
2024/02/18 01:06:04;;;;;;;8.53;5.70;;;;;;;3.96;100.00;103267.63;6083348;29;20232;-67
2024/02/18 01:09:27;;;;;;;15.43;6.73;;;;;;;3.77;100.00;103254.75;6088051;29;20232;-66
2024/02/18 01:12:48;;;;;;;14.03;5.87;;;;;;;3.99;100.00;103267.56;6085334;29;20232;-66
2024/02/18 01:16:08;;;;;;;6.23;5.07;;;;;;;3.85;100.00;103247.47;6077657;29;20241;-67
2024/02/18 01:19:29;;;;;;;16.97;6.20;;;;;;;4.12;100.00;103248.59;6083039;29;20247;-66
2024/02/18 01:22:50;;;;;;;11.77;6.80;;;;;;;4.29;100.00;103238.38;6082613;29;20229;-66
2024/02/18 01:26:12;;;;;;;7.53;5.23;;;;;;;4.27;100.00;103248.22;6083299;29;20244;-66
2024/02/18 01:29:35;;;;;;;9.30;5.47;;;;;;;4.35;100.00;103244.47;6085717;29;20236;-66
2024/02/18 01:32:55;;;;;;;11.10;6.10;;;;;;;4.35;100.00;103241.78;6077233;29;20240;-66
2024/02/18 01:36:16;;;;;;;10.07;6.30;;;;;;;4.17;100.00;103236.91;6079900;29;20224;-66
2024/02/18 01:39:37;;;;;;;8.37;6.27;;;;;;;4.21;100.00;103229.69;6086231;29;20307;-66
2024/02/18 01:42:59;;;;;;;9.80;5.90;;;;;;;4.38;100.00;103228.34;6087213;29;20715;-66
2024/02/18 01:46:21;;;;;;;13.17;7.50;;;;;;;3.87;100.00;103209.16;6063474;29;20323;-66
2024/02/18 01:49:48;;;;;;;12.03;7.27;;;;;;;4.13;100.00;103205.00;6090268;29;20355;-66
2024/02/18 01:53:10;;;;;;;13.53;5.70;;;;;;;4.24;100.00;103200.25;6079258;29;20233;-65
2024/02/18 01:56:32;;;;;;;16.13;5.97;;;;;;;4.10;100.00;103200.59;6081353;29;20259;-67
2024/02/18 01:59:56;;;;;;;6.80;4.60;;;;;;;4.08;100.00;103202.44;6074813;29;20296;-66
2024/02/18 02:03:17;;;;;;;23.70;5.97;;;;;;;3.94;100.00;103201.91;6083431;29;20225;-66
2024/02/18 02:06:38;;;;;;;10.30;5.03;;;;;;;4.14;100.00;103194.28;6086083;29;20518;-66
2024/02/18 02:09:59;;;;;;;6.43;5.73;;;;;;;4.30;100.00;103176.94;6096086;29;20274;-66
2024/02/18 02:13:20;;;;;;;7.73;5.77;;;;;;;4.19;100.00;103186.16;6086653;29;20240;-66
2024/02/18 02:16:43;;;;;;;10.87;6.57;;;;;;;4.35;100.00;103174.16;6076337;29;20232;-66
2024/02/18 02:20:09;;;;;;;8.40;4.63;;;;;;;4.28;100.00;103160.09;6086825;29;20236;-65
2024/02/18 02:23:31;;;;;;;10.60;4.60;;;;;;;4.16;100.00;103163.09;6090791;29;20696;-66
2024/02/18 02:26:54;;;;;;;10.47;5.40;;;;;;;4.33;100.00;103181.34;6085281;29;20236;-67
2024/02/18 02:30:17;;;;;;;9.47;4.60;;;;;;;4.45;100.00;103173.00;6085840;29;20233;-67
2024/02/18 02:33:38;;;;;;;14.77;6.43;;;;;;;4.28;100.00;103172.56;6092097;29;20223;-66
2024/02/18 02:36:58;;;;;;;9.67;4.73;;;;;;;4.17;100.00;103158.63;6089211;29;20319;-67
2024/02/18 02:40:19;;;;;;;7.43;4.27;;;;;;;4.45;100.00;103151.63;6090322;29;20267;-66
2024/02/18 02:43:40;;;;;;;9.17;4.90;;;;;;;4.38;100.00;103134.03;6094548;29;20225;-66
2024/02/18 02:47:03;;;;;;;9.43;5.33;;;;;;;4.29;100.00;103148.50;6085301;29;20240;-65
2024/02/18 02:50:24;;;;;;;9.07;3.77;;;;;;;4.57;100.00;103161.97;6085774;29;21164;-67
2024/02/18 02:53:46;;;;;;;15.73;5.10;;;;;;;4.62;100.00;103160.94;6089203;29;20248;-67
2024/02/18 02:57:07;;;;;;;9.97;4.47;;;;;;;4.42;100.00;103152.59;6086235;29;20236;-66
2024/02/18 03:00:27;;;;;;;9.67;5.33;;;;;;;4.59;100.00;103150.34;6079538;29;20876;-66
2024/02/18 03:03:49;;;;;;;7.13;4.13;;;;;;;4.42;100.00;103143.72;6090569;29;20654;-66
2024/02/18 03:07:10;;;;;;;6.17;4.30;;;;;;;4.19;100.00;103130.97;6088838;29;20228;-66
2024/02/18 03:10:31;;;;;;;9.70;5.00;;;;;;;4.14;100.00;103118.66;6089654;29;20240;-66
2024/02/18 03:13:54;;;;;;;6.60;3.73;;;;;;;3.92;100.00;103123.69;6096607;29;20233;-66
2024/02/18 03:17:15;;;;;;;9.63;4.50;;;;;;;3.90;100.00;103112.19;6085640;29;20236;-66
2024/02/18 03:20:38;;;;;;;13.93;4.70;;;;;;;4.01;100.00;103110.97;6090065;29;20873;-66
2024/02/18 03:23:59;;;;;;;8.17;4.00;;;;;;;4.01;100.00;103104.75;6097459;29;20231;-66
2024/02/18 03:27:20;;;;;;;5.73;4.33;;;;;;;4.02;100.00;103106.53;6089246;29;20256;-67
2024/02/18 03:30:41;;;;;;;7.50;4.27;;;;;;;4.13;100.00;103101.75;6086157;29;20233;-66
2024/02/18 03:34:02;;;;;;;3.87;3.50;;;;;;;4.23;100.00;103094.41;6093436;29;20607;-65
2024/02/18 03:37:24;;;;;;;8.33;3.70;;;;;;;4.07;100.00;103099.25;6082953;29;20241;-65
2024/02/18 03:40:46;;;;;;;6.33;3.73;;;;;;;4.03;100.00;103097.59;6083961;29;20531;-65
2024/02/18 03:44:07;;;;;;;12.83;4.40;;;;;;;4.05;100.00;103091.31;6093533;29;20245;-66
2024/02/18 03:47:28;;;;;;;7.53;3.53;;;;;;;4.17;100.00;103090.13;6087615;29;20240;-67
2024/02/18 03:50:49;;;;;;;6.93;4.60;;;;;;;4.31;100.00;103077.25;6085270;29;20323;-66
2024/02/18 03:54:13;;;;;;;6.50;4.33;;;;;;;4.47;100.00;103083.03;6091949;29;20272;-66
2024/02/18 03:57:34;;;;;;;5.37;3.33;;;;;;;4.21;100.00;103064.22;6086545;29;20281;-67
2024/02/18 04:00:55;;;;;;;10.27;4.73;;;;;;;4.46;100.00;103070.63;6083459;29;20232;-66
2024/02/18 04:04:16;;;;;;;12.23;4.60;;;;;;;4.38;100.00;103068.16;6082821;29;20461;-66
2024/02/18 04:07:37;;;;;;;7.40;4.87;;;;;;;4.45;100.00;103069.72;6088743;29;20232;-66
2024/02/18 04:10:59;;;;;;;5.23;2.90;;;;;;;4.50;100.00;103054.47;6086797;29;20512;-67
2024/02/18 04:14:20;;;;;;;9.97;4.83;;;;;;;4.39;100.00;103061.91;6089338;29;20241;-67
2024/02/18 04:17:41;;;;;;;9.27;4.87;;;;;;;4.44;100.00;103059.09;6077675;29;20327;-67
2024/02/18 04:21:02;;;;;;;8.67;3.83;;;;;;;4.21;100.00;103051.75;6087169;29;20576;-67
2024/02/18 04:24:23;;;;;;;10.53;4.27;;;;;;;4.16;100.00;103048.31;6086783;29;20232;-67
2024/02/18 04:27:46;;;;;;;7.77;3.83;;;;;;;4.14;100.00;103041.25;6083917;29;20229;-66
2024/02/18 04:31:07;;;;;;;9.10;3.93;;;;;;;4.24;100.00;103046.31;6069765;29;20256;-66
2024/02/18 04:34:28;;;;;;;11.40;4.47;;;;;;;4.18;100.00;103042.94;6081291;29;20233;-66
2024/02/18 04:37:49;;;;;;;5.83;4.20;;;;;;;4.36;100.00;103037.94;6086685;29;20240;-67
2024/02/18 04:41:10;;;;;;;5.77;4.33;;;;;;;4.30;100.00;103027.44;6086538;29;20253;-66
2024/02/18 04:44:33;;;;;;;5.37;4.43;;;;;;;4.28;100.00;103018.59;6092411;29;20248;-66
2024/02/18 04:47:54;;;;;;;20.67;5.77;;;;;;;4.25;100.00;103024.03;6042151;29;20209;-67
2024/02/18 04:51:15;;;;;;;5.57;3.37;;;;;;;4.17;100.00;103022.50;6092725;29;20205;-65
2024/02/18 04:54:36;;;;;;;7.20;3.13;;;;;;;4.40;100.00;103015.56;6097680;29;20305;-66
2024/02/18 04:57:57;;;;;;;6.83;4.00;;;;;;;4.09;100.00;102998.69;6041706;29;20262;-66
2024/02/18 05:01:19;;;;;;;6.97;3.67;;;;;;;4.19;100.00;102997.53;6088294;29;20757;-67
2024/02/18 05:04:39;;;;;;;4.23;3.80;;;;;;;4.32;100.00;103001.56;6099802;29;20224;-66
2024/02/18 05:08:00;;;;;;;6.30;4.77;;;;;;;4.56;100.00;102995.53;6096559;29;20205;-66
2024/02/18 05:11:22;;;;;;;6.97;4.57;;;;;;;4.40;100.00;102996.88;6089801;29;20216;-66
2024/02/18 05:14:43;;;;;;;5.67;5.17;;;;;;;4.27;100.00;102989.28;6099843;29;20228;-66
2024/02/18 05:18:05;;;;;;;6.33;4.37;;;;;;;4.39;100.00;102991.59;6094685;29;20224;-66
2024/02/18 05:21:26;;;;;;;8.03;4.77;;;;;;;4.50;100.00;102981.50;6092476;29;20201;-67
2024/02/18 05:24:48;;;;;;;10.20;4.57;;;;;;;4.49;100.00;102977.06;6041851;29;20217;-65
2024/02/18 05:28:09;;;;;;;6.00;4.13;;;;;;;4.53;100.00;102990.28;6098291;29;20474;-66
2024/02/18 05:31:30;;;;;;;10.77;5.30;;;;;;;4.64;100.00;102977.47;6093095;29;20209;-66
2024/02/18 05:34:52;;;;;;;5.30;4.10;;;;;;;4.56;100.00;102968.81;6097718;29;20212;-66
2024/02/18 05:38:13;;;;;;;5.17;4.63;;;;;;;4.60;100.00;102970.47;6097019;29;20212;-67
2024/02/18 05:41:34;;;;;;;6.87;4.53;;;;;;;4.42;100.00;102957.66;6092626;29;20204;-65
2024/02/18 05:44:54;;;;;;;8.07;3.87;;;;;;;4.44;100.00;102971.88;6099129;29;20562;-66
2024/02/18 05:48:15;;;;;;;13.80;5.20;;;;;;;4.38;100.00;102957.84;6095533;29;20201;-67
2024/02/18 05:51:37;;;;;;;10.07;5.03;;;;;;;4.38;100.00;102942.66;6091852;29;20221;-67
2024/02/18 05:54:58;;;;;;;5.63;5.10;;;;;;;4.43;100.00;102938.06;6093947;29;20185;-67
2024/02/18 05:58:18;;;;;;;9.23;6.70;;;;;;;4.38;100.00;102931.97;6096317;29;20305;-66
2024/02/18 06:01:39;;;;;;;9.80;6.23;;;;;;;4.50;100.00;102925.41;6088283;29;20216;-66
2024/02/18 06:05:00;;;;;;;10.13;5.73;;;;;;;4.59;100.00;102922.47;6096292;29;20288;-67
2024/02/18 06:08:22;;;;;;;10.60;7.00;;;;;;;4.52;100.00;102921.78;6093554;29;20219;-66
2024/02/18 06:11:43;;;;;;;7.90;6.47;;;;;;;4.62;100.00;102901.00;6100211;29;20217;-66
2024/02/18 06:15:05;;;;;;;10.53;6.80;;;;;;;4.56;100.00;102909.19;6095164;29;20205;-66
2024/02/18 06:18:26;;;;;;;14.40;7.23;;;;;;;4.79;100.00;102893.31;6083415;29;20225;-67
2024/02/18 06:21:46;;;;;;;9.13;7.13;;;;;;;4.84;100.00;102884.22;6097947;29;20552;-67
2024/02/18 06:25:09;;;;;;;10.67;6.07;;;;;;;4.88;100.00;102861.81;6091671;29;20205;-66
2024/02/18 06:28:32;;;;;;;13.27;8.73;;;;;;;4.93;100.00;102874.13;6097352;29;20205;-66
2024/02/18 06:31:52;;;;;;;12.40;8.47;;;;;;;4.91;100.00;102870.66;6092720;29;20209;-67
2024/02/18 06:35:13;;;;;;;16.27;10.37;;;;;;;4.94;100.00;102862.53;6090035;29;20293;-66
2024/02/18 06:38:35;;;;;;;12.70;9.07;;;;;;;5.01;100.00;102858.72;6097744;29;20228;-67
2024/02/18 06:42:03;;;;;;;11.40;9.27;;;;;;;5.04;100.00;102848.81;6089893;29;20285;-66
2024/02/18 06:45:23;;;;;;;19.83;10.40;;;;;;;5.05;100.00;102853.22;6038581;29;20220;-66
2024/02/18 06:48:44;;;;;;;20.63;13.53;;;;;;;5.06;100.00;102843.41;6098987;29;20283;-66
2024/02/18 06:52:05;;;;;;;18.83;9.87;;;;;;;5.07;100.00;102835.34;6094616;29;20224;-67
2024/02/18 06:55:26;;;;;;;17.17;12.20;;;;;;;5.28;100.00;102833.69;6090464;29;20225;-66
2024/02/18 06:58:49;;;;;;;16.13;11.47;;;;;;;5.14;100.00;102834.19;6104366;29;20236;-66
2024/02/18 07:02:10;;;;;;;16.93;11.43;;;;;;;5.06;100.00;102825.59;6091531;29;20221;-67
2024/02/18 07:05:31;;;;;;;10.43;9.37;;;;;;;5.24;100.00;102826.72;6095803;29;20216;-66
2024/02/18 07:08:52;;;;;;;14.70;10.77;;;;;;;5.27;100.00;102815.94;6103758;29;20189;-67
2024/02/18 07:12:13;;;;;;;17.30;11.43;;;;;;;5.28;100.00;102817.66;6096664;29;20204;-66
2024/02/18 07:15:35;;;;;;;10.33;9.27;;;;;;;5.29;100.00;102804.25;6101253;29;20438;-66
2024/02/18 07:18:56;;;;;;;17.10;9.70;;;;;;;5.26;100.00;102814.16;6099716;29;20217;-66
2024/02/18 07:22:18;;;;;;;14.67;10.63;;;;;;;5.38;100.00;102809.25;6097913;29;20205;-66
2024/02/18 07:25:40;;;;;;;13.10;8.80;;;;;;;5.33;100.00;102805.00;6100288;29;20795;-67
2024/02/18 07:29:01;;;;;;;15.73;10.47;;;;;;;5.36;100.00;102802.25;6104946;29;20197;-66
2024/02/18 07:32:23;;;;;;;14.80;10.57;;;;;;;5.43;100.00;102804.63;6104489;29;20607;-66
2024/02/18 07:35:44;;;;;;;12.67;11.37;;;;;;;5.39;100.00;102805.66;6103726;29;20204;-67
2024/02/18 07:39:05;;;;;;;11.90;10.17;;;;;;;5.57;100.00;102801.41;6100317;29;20777;-66
2024/02/18 07:42:26;;;;;;;13.10;10.73;;;;;;;5.64;100.00;102792.25;6097886;29;20228;-67
2024/02/18 07:45:47;;;;;;;12.13;8.93;;;;;;;5.52;100.00;102796.28;6100937;29;20215;-67
2024/02/18 07:49:10;;;;;;;14.00;10.00;;;;;;;5.62;100.00;102786.97;6096605;29;20214;-68
2024/02/18 07:52:31;;;;;;;12.43;9.60;;;;;;;5.67;100.00;102784.97;6102891;29;20260;-66
2024/02/18 07:55:52;;;;;;;11.17;9.67;;;;;;;5.68;100.00;102780.50;6097371;29;20586;-66
2024/02/18 07:59:13;;;;;;;15.90;10.40;;;;;;;5.68;100.00;102777.81;6100227;29;20205;-67
2024/02/18 08:02:34;;;;;;;15.03;10.70;;;;;;;5.74;100.00;102771.38;6097159;29;20212;-67
2024/02/18 08:05:56;;;;;;;10.60;9.13;;;;;;;5.74;100.00;102769.56;6096153;29;20220;-66
2024/02/18 08:09:16;;;;;;;11.10;9.07;;;;;;;5.76;100.00;102770.38;6099572;29;20205;-67
2024/02/18 08:12:37;;;;;;;15.33;12.00;;;;;;;5.79;100.00;102762.25;6097046;29;20208;-66
2024/02/18 08:15:58;;;;;;;13.73;11.63;;;;;;;5.71;100.00;102764.34;6094070;29;20264;-67
2024/02/18 08:19:19;;;;;;;14.67;10.93;;;;;;;5.78;100.00;102749.78;6106704;29;20232;-67
2024/02/18 08:22:41;;;;;;;12.10;10.60;;;;;;;5.90;100.00;102756.50;6096821;29;20213;-67
2024/02/18 08:26:02;;;;;;;15.90;11.90;;;;;;;5.96;100.00;102746.44;6093807;29;20209;-65
2024/02/18 08:29:22;;;;;;;13.83;11.67;;;;;;;6.00;100.00;102741.81;6101113;29;20217;-66
2024/02/18 08:32:45;;;;;;;11.93;10.50;;;;;;;5.97;100.00;102742.81;6090680;29;20600;-66
2024/02/18 08:36:06;;;;;;;13.30;11.90;;;;;;;6.04;100.00;102738.09;6101864;29;20217;-67
2024/02/18 08:39:28;;;;;;;17.27;12.57;;;;;;;6.12;100.00;102728.81;6097856;29;20217;-66
2024/02/18 08:42:49;;;;;;;13.30;11.17;;;;;;;6.24;100.00;102712.25;6072158;29;20224;-67
2024/02/18 08:46:10;;;;;;;11.40;10.20;;;;;;;6.45;100.00;102721.19;6095421;29;20209;-67
2024/02/18 08:49:31;;;;;;;20.97;13.77;;;;;;;6.46;100.00;102712.22;6099950;29;20287;-66
2024/02/18 08:52:52;;;;;;;13.17;11.60;;;;;;;6.54;100.00;102704.72;6091335;29;20201;-66
2024/02/18 08:56:14;;;;;;;19.17;10.93;;;;;;;6.66;100.00;102703.31;6097004;29;20209;-67
2024/02/18 08:59:34;;;;;;;16.47;11.87;;;;;;;6.72;100.00;102708.41;6101872;29;20220;-67
2024/02/18 09:02:55;;;;;;;13.90;11.73;;;;;;;6.73;100.00;102694.97;6089762;29;20212;-66
2024/02/18 09:06:17;;;;;;;14.97;12.07;;;;;;;6.80;100.00;102695.56;6093380;29;20208;-66
2024/02/18 09:09:38;;;;;;;15.50;12.60;;;;;;;6.85;100.00;102688.19;6098566;29;20193;-66
2024/02/18 09:13:01;;;;;;;20.33;13.50;;;;;;;6.79;100.00;102686.66;6089219;29;20267;-67
2024/02/18 09:16:22;;;;;;;15.07;11.47;;;;;;;6.87;100.00;102676.47;6084285;29;20778;-68
2024/02/18 09:19:46;;;;;;;17.97;14.33;;;;;;;6.99;100.00;102681.25;6071442;29;20308;-66
2024/02/18 09:23:06;;;;;;;16.10;14.03;;;;;;;7.07;100.00;102671.06;6093049;29;20667;-66
2024/02/18 09:26:28;;;;;;;18.17;13.90;;;;;;;7.10;100.00;102670.06;6091934;29;20232;-66
2024/02/18 09:29:51;;;;;;;15.43;13.03;;;;;;;7.10;100.00;102672.72;6095076;29;20780;-66
2024/02/18 09:33:12;;;;;;;17.37;13.57;;;;;;;7.08;100.00;102671.94;6091555;29;20201;-67
2024/02/18 09:36:33;;;;;;;21.03;14.77;;;;;;;7.18;100.00;102671.44;6092953;29;20232;-67
2024/02/18 09:39:54;;;;;;;16.07;13.40;;;;;;;7.33;100.00;102663.63;6097411;29;20213;-67
2024/02/18 09:43:16;;;;;;;16.23;13.30;;;;;;;7.36;100.00;102656.31;6099163;29;20205;-66
2024/02/18 09:46:40;;;;;;;15.50;13.50;;;;;;;7.48;100.00;102657.53;6090990;29;20475;-67
2024/02/18 09:50:01;;;;;;;19.10;14.77;;;;;;;7.69;100.00;102660.09;6101125;29;20237;-67
2024/02/18 09:53:22;;;;;;;21.67;15.03;;;;;;;7.69;100.00;102652.03;6092156;29;20208;-67
2024/02/18 09:56:43;;;;;;;18.17;14.17;;;;;;;7.76;100.00;102647.25;6091023;29;20773;-67
2024/02/18 10:00:04;;;;;;;22.77;16.63;;;;;;;7.96;100.00;102639.94;6096368;29;20220;-67
2024/02/18 10:03:27;;;;;;;18.10;13.20;;;;;;;7.97;100.00;102640.78;6093187;29;20618;-67
2024/02/18 10:06:48;;;;;;;18.43;14.00;;;;;;;7.96;100.00;102634.56;6085797;29;20205;-67
2024/02/18 10:10:09;;;;;;;18.63;15.70;;;;;;;8.12;100.00;102626.59;6094956;29;20591;-68
2024/02/18 10:13:30;;;;;;;21.47;14.13;;;;;;;8.16;100.00;102624.63;6100724;29;20208;-67
2024/02/18 10:16:51;;;;;;;16.20;13.10;;;;;;;8.07;100.00;102610.72;6087306;29;20200;-67
2024/02/18 10:20:14;;;;;;;16.60;13.40;;;;;;;8.04;100.00;102605.50;6091472;29;20205;-67
2024/02/18 10:23:35;;;;;;;19.63;13.60;;;;;;;8.13;100.00;102601.50;6097730;29;20197;-66
2024/02/18 10:26:56;;;;;;;23.50;14.10;;;;;;;8.19;100.00;102590.44;6089724;29;20654;-65
2024/02/18 10:30:18;;;;;;;20.17;13.97;;;;;;;8.24;100.00;102596.41;6100807;29;20469;-66
2024/02/18 10:33:41;;;;;;;19.30;14.03;;;;;;;8.20;100.00;102581.41;6100247;29;20193;-67
2024/02/18 10:37:08;;;;;;;17.77;13.87;;;;;;;8.22;100.00;102586.72;6077152;29;20201;-66
2024/02/18 10:40:34;;;;;;;21.23;14.20;;;;;;;8.30;100.00;102569.28;6100239;29;20769;-66
2024/02/18 10:43:58;;;;;;;18.80;12.83;;;;;;;8.33;100.00;102565.56;6108118;29;20231;-67
2024/02/18 10:47:24;;;;;;;19.67;12.33;;;;;;;8.39;100.00;102558.03;6088142;29;20209;-67
2024/02/18 10:50:49;;;;;;;14.63;11.63;;;;;;;8.48;100.00;102552.19;6091089;29;20209;-67
2024/02/18 10:54:28;;;;;;;17.10;13.30;;;;;;;8.47;100.00;102549.59;6110460;29;20205;-66
2024/02/18 10:57:56;;;;;;;15.10;12.30;;;;;;;8.46;100.00;102548.72;6071349;29;20204;-66
2024/02/18 11:01:18;;;;;;;15.37;12.30;;;;;;;8.56;100.00;102546.41;6098232;29;20513;-67
2024/02/18 11:04:40;;;;;;;15.00;10.97;;;;;;;8.59;100.00;102535.50;6101328;29;20221;-67
2024/02/18 11:08:02;;;;;;;12.97;10.93;;;;;;;8.68;100.00;102543.91;6091694;29;20205;-67
2024/02/18 11:11:27;;;;;;;16.43;14.10;;;;;;;8.73;100.00;102525.72;6101233;29;20221;-66
2024/02/18 11:14:49;;;;;;;14.60;10.97;;;;;;;8.69;100.00;102521.47;6102448;29;20204;-67
2024/02/18 11:18:10;;;;;;;13.77;10.43;;;;;;;8.79;100.00;102511.06;6098814;29;20189;-67
2024/02/18 11:21:31;;;;;;;10.60;9.53;;;;;;;8.84;100.00;102501.78;6093555;29;20220;-68
2024/02/18 11:24:55;;;;;;;11.13;9.43;;;;;;;8.84;100.00;102499.09;6100077;29;20805;-65
2024/02/18 11:28:17;;;;;;;14.33;10.80;;;;;;;8.82;100.00;102511.75;6101692;29;20196;-67
2024/02/18 11:31:38;;;;;;;11.33;10.17;;;;;;;8.88;100.00;102496.25;6092745;29;20209;-66
2024/02/18 11:35:08;;;;;;;10.57;9.50;;;;;;;8.88;100.00;102489.06;6101904;29;20478;-67
2024/02/18 11:38:29;;;;;;;8.93;7.93;;;;;;;8.95;100.00;102489.59;6102321;29;20212;-68
2024/02/18 11:41:52;;;;;;;12.00;8.90;;;;;;;9.00;100.00;102480.28;6092084;29;20224;-67
2024/02/18 11:45:16;;;;;;;8.70;7.80;;;;;;;9.07;100.00;102472.75;6098308;29;20252;-67
2024/02/18 11:48:37;;;;;;;8.60;7.57;;;;;;;9.05;100.00;102471.97;6088426;29;20202;-67
2024/02/18 11:51:57;;;;;;;8.53;7.30;;;;;;;9.08;100.00;102467.25;6077809;29;20201;-66
2024/02/18 11:55:19;;;;;;;8.00;6.73;;;;;;;9.11;100.00;102456.34;6095057;29;20244;-67
2024/02/18 11:58:40;;;;;;;9.17;8.23;;;;;;;9.08;100.00;102445.75;6101146;29;20216;-67
2024/02/18 12:02:02;;;;;;;7.37;6.00;;;;;;;9.09;100.00;102446.63;6085681;29;20409;-67
2024/02/18 12:05:25;;;;;;;7.53;6.17;;;;;;;9.11;100.00;102440.19;6095043;29;20597;-67
2024/02/18 12:08:48;;;;;;;8.43;6.37;;;;;;;9.15;100.00;102427.44;6098731;29;20283;-67
2024/02/18 12:12:09;;;;;;;6.60;6.00;;;;;;;9.16;100.00;102431.84;6079642;29;20510;-67
2024/02/18 12:15:30;;;;;;;5.37;4.97;;;;;;;9.18;100.00;102411.97;6085682;29;20208;-67
2024/02/18 12:18:52;;;;;;;7.97;7.17;;;;;;;9.21;100.00;102402.84;6098949;29;20212;-67
2024/02/18 12:22:20;;;;;;;12.27;6.80;;;;;;;9.23;100.00;102395.56;6093316;29;20221;-66
2024/02/18 12:25:41;;;;;;;7.33;6.63;;;;;;;9.21;100.00;102390.28;6091120;29;20535;-65
2024/02/18 12:29:02;;;;;;;7.87;7.07;;;;;;;9.19;100.00;102377.88;6098649;29;20193;-67
2024/02/18 12:32:23;;;;;;;7.30;6.43;;;;;;;9.22;100.00;102369.63;6086875;29;20201;-66
2024/02/18 12:35:45;;;;;;;9.53;7.43;;;;;;;9.20;100.00;102368.84;6090570;29;20373;-66
2024/02/18 12:39:07;;;;;;;8.13;6.67;;;;;;;9.26;100.00;102363.94;6103899;29;21043;-66
2024/02/18 12:42:28;;;;;;;8.83;6.70;;;;;;;9.22;100.00;102357.00;6093872;29;20622;-66
2024/02/18 12:45:49;;;;;;;7.43;6.30;;;;;;;9.31;100.00;102350.22;6089323;29;20201;-67
2024/02/18 12:49:11;;;;;;;7.37;6.67;;;;;;;9.22;100.00;102348.94;6065593;29;20217;-66
2024/02/18 12:52:33;;;;;;;9.93;6.53;;;;;;;9.25;100.00;102331.75;6093818;29;20209;-67
2024/02/18 12:55:53;;;;;;;6.20;5.70;;;;;;;9.23;100.00;102328.28;6094934;29;20208;-67
2024/02/18 12:59:16;;;;;;;7.17;6.07;;;;;;;9.20;100.00;102320.41;6066279;29;20209;-67
2024/02/18 13:02:38;;;;;;;6.73;5.43;;;;;;;9.19;100.00;102313.28;6085261;29;20322;-66
2024/02/18 13:05:58;;;;;;;10.73;6.00;;;;;;;9.20;100.00;102323.13;6090038;29;20548;-67
2024/02/18 13:09:27;;;;;;;7.93;6.60;;;;;;;9.15;100.00;102304.56;6103354;29;20679;-66
2024/02/18 13:13:04;;;;;;;6.63;5.93;;;;;;;9.15;100.00;102296.47;6091555;29;20205;-68
2024/02/18 13:16:24;;;;;;;9.27;6.87;;;;;;;9.16;100.00;102284.75;6086487;29;20221;-66
2024/02/18 13:19:45;;;;;;;8.13;5.97;;;;;;;9.15;100.00;102280.34;6100740;29;20205;-67
2024/02/18 13:23:06;;;;;;;9.53;7.83;;;;;;;9.18;100.00;102274.75;6090513;29;20829;-66
2024/02/18 13:26:29;;;;;;;9.63;7.37;;;;;;;9.17;100.00;102273.03;6094858;29;20655;-67
2024/02/18 13:29:49;;;;;;;7.37;6.40;;;;;;;9.17;100.00;102264.97;6095022;29;21605;-66
2024/02/18 13:33:10;;;;;;;5.97;5.37;;;;;;;9.13;100.00;102249.09;6097704;29;20224;-66
2024/02/18 13:36:31;;;;;;;7.23;6.53;;;;;;;9.10;100.00;102243.91;6064669;29;20221;-66
2024/02/18 13:39:51;;;;;;;6.33;5.77;;;;;;;9.10;100.00;102241.19;6093375;29;20212;-67
2024/02/18 13:43:15;;;;;;;6.77;6.10;;;;;;;9.09;100.00;102229.59;6095853;29;20204;-68
2024/02/18 13:46:36;;;;;;;7.43;5.90;;;;;;;9.05;100.00;102216.44;6088269;29;20220;-66
2024/02/18 13:49:58;;;;;;;6.60;6.03;;;;;;;9.05;100.00;102220.00;6095545;29;20243;-66
2024/02/18 13:53:18;;;;;;;7.07;5.87;;;;;;;9.08;100.00;102218.91;6099625;29;20197;-67
2024/02/18 13:56:41;;;;;;;7.07;4.63;;;;;;;9.04;100.00;102214.69;6092426;29;20769;-67
2024/02/18 14:00:04;;;;;;;8.30;6.10;;;;;;;9.05;100.00;102201.16;6097985;29;20287;-67
2024/02/18 14:03:27;;;;;;;7.83;7.07;;;;;;;9.01;100.00;102202.28;6097607;29;20232;-66
2024/02/18 14:06:48;;;;;;;9.20;6.17;;;;;;;9.06;100.00;102192.13;6098062;29;20208;-68
2024/02/18 14:10:10;;;;;;;6.17;5.57;;;;;;;9.02;100.00;102189.69;6108021;29;20204;-68
2024/02/18 14:13:31;;;;;;;7.00;6.13;;;;;;;8.97;100.00;102173.84;6077031;29;20224;-67
2024/02/18 14:16:53;;;;;;;8.03;6.13;;;;;;;8.99;100.00;102165.69;6086372;29;20233;-67
2024/02/18 14:20:13;;;;;;;6.77;5.93;;;;;;;8.94;100.00;102152.53;6085612;29;20212;-67
2024/02/18 14:23:34;;;;;;;7.33;6.47;;;;;;;8.96;100.00;102144.38;6079932;29;20635;-67
2024/02/18 14:26:55;;;;;;;8.37;7.13;;;;;;;8.91;100.00;102149.19;6093850;29;20217;-67
2024/02/18 14:30:17;;;;;;;8.73;7.40;;;;;;;8.89;100.00;102134.97;6090859;29;20473;-67
2024/02/18 14:33:40;;;;;;;8.63;7.27;;;;;;;8.87;100.00;102124.28;6093005;29;20786;-67
2024/02/18 14:37:00;;;;;;;7.83;6.90;;;;;;;8.85;100.00;102116.31;6089631;29;20213;-66
2024/02/18 14:40:21;;;;;;;8.80;6.43;;;;;;;8.88;100.00;102106.34;6094190;29;20209;-67
2024/02/18 14:43:42;;;;;;;7.07;5.97;;;;;;;8.82;100.00;102099.53;6090753;29;20257;-67
2024/02/18 14:47:02;;;;;;;8.43;7.23;;;;;;;8.80;100.00;102096.06;6088151;29;20201;-66
2024/02/18 14:50:24;;;;;;;8.63;7.83;;;;;;;8.81;100.00;102087.03;6091227;29;20579;-68
2024/02/18 14:53:49;;;;;;;9.03;8.10;;;;;;;8.78;100.00;102087.22;6071730;29;20244;-67
2024/02/18 14:57:10;;;;;;;9.97;8.17;;;;;;;8.72;100.00;102061.56;6084086;29;20319;-67
2024/02/18 15:00:31;;;;;;;8.07;7.17;;;;;;;8.74;100.00;102059.66;6044942;29;20319;-69
2024/02/18 15:03:52;;;;;;;7.97;7.20;;;;;;;8.72;100.00;102063.38;6079982;29;20243;-67
2024/02/18 15:07:14;;;;;;;8.93;8.03;;;;;;;8.74;100.00;102059.66;6062066;29;20286;-67
2024/02/18 15:10:35;;;;;;;8.37;6.50;;;;;;;8.83;100.00;102048.34;6068127;29;20327;-67
2024/02/18 15:13:56;;;;;;;8.23;7.43;;;;;;;8.77;100.00;102046.03;6080801;29;20240;-68
2024/02/18 15:17:17;;;;;;;11.00;7.50;;;;;;;8.75;100.00;102036.31;6064031;29;20315;-67
2024/02/18 15:20:38;;;;;;;9.10;6.53;;;;;;;8.74;100.00;102027.38;6075476;29;20607;-67
2024/02/18 15:24:00;;;;;;;9.17;7.43;;;;;;;8.69;100.00;102013.38;6088408;29;20263;-67
2024/02/18 15:27:21;;;;;;;8.80;7.80;;;;;;;8.77;100.00;102002.13;6078385;29;20686;-66
2024/02/18 15:30:42;;;;;;;8.33;7.40;;;;;;;8.73;100.00;102006.00;6038431;29;20237;-68